Aviation Digital Data Service (ADDS)

Output produced by TAFs form (0401 UTC 11 December 2017)
found at http://www.aviationweather.gov/adds/tafs/
 
KANB 110353Z AUTO 00000KT CLR M02/M04 A3028 RMK AO2 SLP268 T10171039 $
KANB 102329Z 1100/1124 24002KT P6SM SKC 
     FM111600 24007KT P6SM SKC AMD NOT SKED